createdAt,value
2018-08-23T00:00:59.337Z,73.30
2018-08-23T00:01:59.356Z,73.80
2018-08-23T00:02:59.361Z,73.70
2018-08-23T00:03:59.354Z,74.70
2018-08-23T00:04:59.355Z,73.40
2018-08-23T00:05:59.394Z,72.20
2018-08-23T00:06:59.499Z,72.60
2018-08-23T00:07:59.402Z,74.40
2018-08-23T00:08:59.398Z,73.70
2018-08-23T00:09:59.458Z,76.00
2018-08-23T00:10:59.367Z,75.30
2018-08-23T00:11:59.371Z,76.00
2018-08-23T00:12:59.365Z,79.30
2018-08-23T00:13:59.389Z,77.50
2018-08-23T00:14:59.381Z,79.90
2018-08-23T00:15:59.377Z,77.90
2018-08-23T00:16:59.392Z,81.40
2018-08-23T00:17:59.397Z,76.90
2018-08-23T00:18:59.391Z,77.00
2018-08-23T00:19:59.504Z,79.20
2018-08-23T00:20:59.399Z,81.10
2018-08-23T00:21:59.399Z,79.70
2018-08-23T00:22:59.423Z,79.90
2018-08-23T00:23:59.456Z,81.80
2018-08-23T00:24:59.430Z,80.30
2018-08-23T00:25:59.401Z,82.00
2018-08-23T00:26:59.470Z,79.70
2018-08-23T00:27:59.440Z,79.80
2018-08-23T00:28:59.450Z,80.00
2018-08-23T00:29:59.455Z,77.30
2018-08-23T00:30:59.458Z,77.90
2018-08-23T00:31:59.472Z,80.10
2018-08-23T00:32:59.461Z,84.30
2018-08-23T00:33:59.504Z,80.50
2018-08-23T00:34:59.456Z,80.90
2018-08-23T00:35:59.474Z,78.70
2018-08-23T00:36:59.477Z,81.20
2018-08-23T00:37:59.465Z,83.60
2018-08-23T00:38:59.475Z,78.60
2018-08-23T00:39:59.488Z,80.30
2018-08-23T00:40:59.509Z,79.70
2018-08-23T00:41:59.476Z,81.20
2018-08-23T00:42:59.459Z,82.60
2018-08-23T00:43:59.478Z,82.20
2018-08-23T00:44:59.485Z,79.60
2018-08-23T00:45:59.505Z,80.10
2018-08-23T00:46:59.475Z,78.60
2018-08-23T00:47:59.552Z,82.60
2018-08-23T00:48:59.518Z,81.10
2018-08-23T00:49:59.507Z,79.90
2018-08-23T00:50:59.534Z,77.60
2018-08-23T00:51:59.504Z,79.10
2018-08-23T00:52:59.514Z,78.60
2018-08-23T00:53:59.535Z,83.20
2018-08-23T00:54:59.535Z,79.60
2018-08-23T00:55:59.528Z,78.10
2018-08-23T00:56:59.520Z,78.20
2018-08-23T00:57:59.526Z,77.40
2018-08-23T00:58:59.556Z,78.70
2018-08-23T00:59:59.561Z,76.30
2018-08-23T01:00:59.541Z,76.60
2018-08-23T01:01:59.534Z,77.50
2018-08-23T01:02:59.564Z,76.30
2018-08-23T01:03:59.539Z,76.40
2018-08-23T01:04:59.534Z,75.10
2018-08-23T01:05:59.547Z,73.80
2018-08-23T01:06:59.582Z,74.60
2018-08-23T01:07:59.568Z,76.40
2018-08-23T01:08:59.561Z,75.50
2018-08-23T01:09:59.577Z,75.90
2018-08-23T01:10:59.577Z,76.60
2018-08-23T01:11:59.569Z,78.70
2018-08-23T01:12:59.573Z,75.40
2018-08-23T01:13:59.682Z,78.50
2018-08-23T01:14:59.640Z,76.90
2018-08-23T01:15:59.571Z,75.40
2018-08-23T01:16:59.604Z,74.40
2018-08-23T01:17:59.572Z,77.20
2018-08-23T01:18:59.595Z,78.70
2018-08-23T01:19:59.607Z,77.00
2018-08-23T01:20:59.588Z,73.80
2018-08-23T01:21:59.598Z,77.10
2018-08-23T01:22:59.603Z,78.00
2018-08-23T01:23:59.606Z,77.60
2018-08-23T01:24:59.616Z,77.30
2018-08-23T01:25:59.622Z,78.40
2018-08-23T01:26:59.603Z,78.70
2018-08-23T01:27:59.616Z,77.90
2018-08-23T01:28:59.619Z,78.00
2018-08-23T01:29:59.633Z,75.60
2018-08-23T01:30:59.686Z,74.30
2018-08-23T01:31:59.662Z,75.60
2018-08-23T01:32:59.649Z,74.20
2018-08-23T01:33:59.636Z,75.90
2018-08-23T01:35:01.429Z,74.90
2018-08-23T01:35:59.629Z,80.40
2018-08-23T01:36:59.654Z,78.80
2018-08-23T01:37:59.685Z,76.60
2018-08-23T01:38:59.662Z,75.10
2018-08-23T01:39:59.645Z,73.50
2018-08-23T01:40:59.673Z,74.70
2018-08-23T01:42:00.312Z,75.80
2018-08-23T01:42:59.665Z,77.60
2018-08-23T01:43:59.690Z,79.00
2018-08-23T01:44:59.662Z,74.70
2018-08-23T01:45:59.667Z,75.10
2018-08-23T01:46:59.699Z,78.60
2018-08-23T01:47:59.706Z,78.00
2018-08-23T01:48:59.676Z,75.60
2018-08-23T01:49:59.715Z,77.30
2018-08-23T01:50:59.708Z,79.10
2018-08-23T01:51:59.681Z,76.80
2018-08-23T01:52:59.739Z,75.50
2018-08-23T01:53:59.774Z,75.70
2018-08-23T01:54:59.786Z,75.40
2018-08-23T01:55:59.711Z,77.30
2018-08-23T01:56:59.688Z,80.50
2018-08-23T01:57:59.824Z,77.90
2018-08-23T01:58:59.696Z,77.00
2018-08-23T01:59:59.732Z,77.80
2018-08-23T02:00:59.710Z,79.60
2018-08-23T02:01:59.743Z,75.90
2018-08-23T02:02:59.717Z,76.10
2018-08-23T02:03:59.755Z,75.40
2018-08-23T02:04:59.737Z,79.50
2018-08-23T02:05:59.723Z,79.00
2018-08-23T02:06:59.730Z,77.40
2018-08-23T02:07:59.730Z,76.90
2018-08-23T02:09:00.314Z,76.40
2018-08-23T02:09:59.734Z,79.50
2018-08-23T02:10:59.755Z,81.60
2018-08-23T02:11:59.752Z,79.30
2018-08-23T02:12:59.754Z,79.30
2018-08-23T02:13:59.760Z,80.90
2018-08-23T02:14:59.773Z,80.50
2018-08-23T02:15:59.753Z,79.70
2018-08-23T02:16:59.762Z,77.00
2018-08-23T02:17:59.769Z,80.30
2018-08-23T02:18:59.801Z,81.40
2018-08-23T02:19:59.872Z,80.30
2018-08-23T02:20:59.772Z,80.60
2018-08-23T02:21:59.765Z,85.20
2018-08-23T02:22:59.810Z,82.70
2018-08-23T02:23:59.775Z,83.80
2018-08-23T02:24:59.786Z,80.20
2018-08-23T02:25:59.867Z,80.00
2018-08-23T02:26:59.816Z,81.40
2018-08-23T02:27:59.808Z,81.60
2018-08-23T02:28:59.791Z,82.40
2018-08-23T02:29:59.800Z,86.20
2018-08-23T02:30:59.822Z,85.70
2018-08-23T02:31:59.804Z,87.80
2018-08-23T02:32:59.794Z,87.30
2018-08-23T02:33:59.796Z,87.50
2018-08-23T02:34:59.801Z,89.80
2018-08-23T02:35:59.861Z,86.90
2018-08-23T02:36:59.823Z,88.30
2018-08-23T02:37:59.828Z,91.30
2018-08-23T02:38:59.871Z,90.20
2018-08-23T02:39:59.851Z,90.00
2018-08-23T02:40:59.843Z,87.60
2018-08-23T02:41:59.852Z,86.20
2018-08-23T02:42:59.840Z,86.80
2018-08-23T02:43:59.873Z,90.50
2018-08-23T02:44:59.875Z,88.80
2018-08-23T02:45:59.830Z,90.90
2018-08-23T02:46:59.870Z,92.20
2018-08-23T02:47:59.862Z,87.30
2018-08-23T02:48:59.862Z,87.00
2018-08-23T02:49:59.865Z,86.90
2018-08-23T02:50:59.884Z,87.30
2018-08-23T02:51:59.921Z,89.20
2018-08-23T02:52:59.896Z,90.40
2018-08-23T02:53:59.896Z,91.80
2018-08-23T02:54:59.905Z,90.50
2018-08-23T02:55:59.882Z,93.20
2018-08-23T02:56:59.883Z,93.60
2018-08-23T02:57:59.868Z,92.60
2018-08-23T02:58:59.889Z,93.90
2018-08-23T02:59:59.918Z,89.10
2018-08-23T03:00:59.893Z,90.40
2018-08-23T03:01:59.961Z,90.00
2018-08-23T03:02:59.897Z,88.50
2018-08-23T03:03:59.901Z,92.70
2018-08-23T03:04:59.905Z,95.10
2018-08-23T03:05:59.942Z,93.30
2018-08-23T03:06:59.940Z,98.60
2018-08-23T03:07:59.944Z,99.80
2018-08-23T03:08:59.923Z,95.00
2018-08-23T03:09:59.923Z,102.10
2018-08-23T03:10:59.931Z,100.60
2018-08-23T03:11:59.925Z,99.00
2018-08-23T03:12:59.940Z,99.10
2018-08-23T03:13:59.942Z,97.80
2018-08-23T03:14:59.948Z,90.30
2018-08-23T03:15:59.955Z,90.60
2018-08-23T03:16:59.921Z,91.50
2018-08-23T03:17:59.940Z,94.70
2018-08-23T03:18:59.952Z,99.20
2018-08-23T03:20:00.029Z,98.20
2018-08-23T03:20:59.935Z,97.70
2018-08-23T03:21:59.956Z,98.30
2018-08-23T03:22:59.982Z,97.90
2018-08-23T03:24:00.010Z,96.60
2018-08-23T03:24:59.962Z,97.60
2018-08-23T03:25:59.963Z,101.60
2018-08-23T03:26:59.999Z,106.00
2018-08-23T03:27:59.972Z,106.80
2018-08-23T03:28:59.963Z,107.90
2018-08-23T03:30:00.105Z,113.00
2018-08-23T03:30:59.981Z,110.80
2018-08-23T03:32:00.011Z,104.50
2018-08-23T03:32:59.998Z,107.20
2018-08-23T03:33:59.972Z,104.10
2018-08-23T03:34:59.994Z,98.90
2018-08-23T03:35:59.992Z,99.80
2018-08-23T03:37:00.025Z,100.00
2018-08-23T03:37:59.990Z,101.00
2018-08-23T03:38:59.987Z,102.50
2018-08-23T03:40:00.002Z,101.70
2018-08-23T03:40:59.990Z,109.00
2018-08-23T03:42:00.015Z,107.40
2018-08-23T03:43:00.096Z,104.60
2018-08-23T03:44:00.076Z,108.70
2018-08-23T03:45:00.005Z,106.20
2018-08-23T03:46:00.069Z,105.30
2018-08-23T03:47:00.038Z,103.20
2018-08-23T03:48:00.071Z,104.90
2018-08-23T03:49:00.028Z,110.80
2018-08-23T03:50:00.027Z,107.00
2018-08-23T03:51:00.040Z,108.30
2018-08-23T03:52:00.057Z,109.30
2018-08-23T03:53:00.858Z,106.90
2018-08-23T03:54:00.026Z,110.90
2018-08-23T03:55:00.041Z,105.40
2018-08-23T03:56:00.080Z,110.70
2018-08-23T03:57:00.046Z,108.60
2018-08-23T03:58:00.064Z,105.00
2018-08-23T03:59:00.059Z,102.40
2018-08-23T04:00:00.053Z,104.80
2018-08-23T04:01:00.075Z,102.70
2018-08-23T04:02:00.110Z,103.90
2018-08-23T04:03:00.062Z,107.70
2018-08-23T04:04:00.059Z,102.40
2018-08-23T04:05:00.071Z,109.20
2018-08-23T04:06:00.068Z,110.90
2018-08-23T04:07:00.064Z,112.40
2018-08-23T04:08:00.101Z,116.30
2018-08-23T04:09:00.084Z,111.50
2018-08-23T04:10:00.091Z,115.70
2018-08-23T04:11:00.867Z,113.40
2018-08-23T04:12:00.090Z,116.10
2018-08-23T04:13:00.117Z,114.90
2018-08-23T04:14:00.118Z,113.60
2018-08-23T04:15:00.102Z,116.00
2018-08-23T04:16:00.094Z,114.60
2018-08-23T04:17:00.149Z,119.10
2018-08-23T04:18:00.123Z,118.90
2018-08-23T04:19:00.103Z,117.30
2018-08-23T04:20:00.107Z,115.60
2018-08-23T04:21:00.117Z,115.10
2018-08-23T04:22:00.118Z,113.90
2018-08-23T04:23:00.200Z,121.10
2018-08-23T04:24:00.875Z,115.90
2018-08-23T04:25:00.125Z,115.10
2018-08-23T04:26:00.143Z,111.80
2018-08-23T04:27:00.120Z,116.20
2018-08-23T04:28:00.157Z,110.70
2018-08-23T04:29:00.135Z,115.30
2018-08-23T04:30:00.149Z,112.80
2018-08-23T04:31:00.138Z,110.10
2018-08-23T04:32:00.144Z,112.80
2018-08-23T04:33:00.164Z,117.30
2018-08-23T04:34:00.145Z,113.30
2018-08-23T04:35:00.144Z,117.30
2018-08-23T04:36:00.179Z,120.00
2018-08-23T04:37:00.173Z,116.60
2018-08-23T04:38:00.180Z,117.60
2018-08-23T04:39:00.175Z,117.70
2018-08-23T04:40:00.179Z,112.20
2018-08-23T04:41:00.173Z,112.40
2018-08-23T04:42:00.180Z,109.20
2018-08-23T04:43:00.195Z,115.80
2018-08-23T04:44:00.197Z,117.10
2018-08-23T04:45:00.260Z,113.80
2018-08-23T04:46:00.172Z,111.60
2018-08-23T04:47:00.275Z,115.10
2018-08-23T04:48:00.188Z,110.80
2018-08-23T04:49:00.191Z,112.50
2018-08-23T04:50:00.200Z,107.40
2018-08-23T04:51:00.192Z,109.60
2018-08-23T04:52:00.297Z,110.60
2018-08-23T04:53:00.197Z,114.10
2018-08-23T04:54:00.248Z,111.50
2018-08-23T04:55:00.201Z,115.40
2018-08-23T04:56:00.244Z,113.50
2018-08-23T04:57:00.268Z,114.50
2018-08-23T04:58:00.228Z,113.90
2018-08-23T04:59:00.226Z,108.70
2018-08-23T05:00:00.219Z,106.80
2018-08-23T05:01:00.241Z,108.60
2018-08-23T05:02:00.259Z,110.40
2018-08-23T05:03:00.249Z,104.30
2018-08-23T05:04:00.333Z,107.00
2018-08-23T05:05:00.364Z,107.20
2018-08-23T05:06:00.252Z,105.80
2018-08-23T05:07:00.257Z,106.10
2018-08-23T05:08:00.233Z,107.50
2018-08-23T05:09:00.283Z,105.10
2018-08-23T05:10:00.249Z,103.10
2018-08-23T05:11:00.244Z,100.60
2018-08-23T05:12:00.275Z,98.20
2018-08-23T05:13:00.241Z,101.40
2018-08-23T05:14:00.327Z,97.90
2018-08-23T05:15:00.298Z,96.30
2018-08-23T05:16:00.260Z,99.40
2018-08-23T05:17:00.284Z,99.50
2018-08-23T05:18:00.891Z,96.30
2018-08-23T05:19:00.302Z,96.00
2018-08-23T05:20:00.279Z,92.90
2018-08-23T05:21:00.305Z,92.00
2018-08-23T05:22:00.385Z,91.40
2018-08-23T05:23:00.340Z,97.40
2018-08-23T05:24:00.285Z,94.20
2018-08-23T05:25:00.294Z,95.20
2018-08-23T05:26:00.293Z,92.00
2018-08-23T05:27:00.298Z,95.20
2018-08-23T05:28:00.313Z,95.10
2018-08-23T05:29:00.318Z,95.40
2018-08-23T05:30:00.342Z,95.10
2018-08-23T05:31:00.356Z,92.40
2018-08-23T05:32:00.318Z,91.90
2018-08-23T05:33:00.331Z,91.90
2018-08-23T05:34:00.338Z,91.10
2018-08-23T05:35:00.334Z,91.20
2018-08-23T05:36:00.329Z,92.00
2018-08-23T05:37:00.355Z,93.10
2018-08-23T05:38:00.356Z,94.00
2018-08-23T05:39:00.342Z,89.30
2018-08-23T05:40:00.380Z,89.90
2018-08-23T05:41:00.897Z,84.40
2018-08-23T05:42:00.361Z,83.80
2018-08-23T05:43:00.391Z,86.00
2018-08-23T05:44:00.360Z,84.50
2018-08-23T05:45:00.352Z,81.60
2018-08-23T05:46:00.384Z,87.60
2018-08-23T05:47:00.349Z,84.70
2018-08-23T05:48:00.384Z,81.00
2018-08-23T05:49:00.370Z,80.50
2018-08-23T05:50:00.407Z,78.90
2018-08-23T05:51:00.368Z,77.00
2018-08-23T05:52:00.438Z,73.00
2018-08-23T05:53:00.390Z,74.60
2018-08-23T05:54:00.380Z,74.20
2018-08-23T05:55:00.444Z,73.80
2018-08-23T05:56:00.379Z,72.50
2018-08-23T05:57:00.401Z,70.50
2018-08-23T05:58:00.393Z,70.90
2018-08-23T05:59:00.388Z,70.10
2018-08-23T06:00:00.409Z,71.00
2018-08-23T06:01:00.432Z,71.70
2018-08-23T06:02:00.437Z,68.40
2018-08-23T06:03:00.433Z,68.20
2018-08-23T06:04:00.422Z,72.40
2018-08-23T06:05:00.424Z,66.90
2018-08-23T06:06:01.545Z,68.50
2018-08-23T06:07:00.457Z,69.40
2018-08-23T06:08:00.467Z,71.60
2018-08-23T06:09:00.543Z,67.60
2018-08-23T06:10:00.442Z,67.70
2018-08-23T06:11:00.463Z,65.40
2018-08-23T06:12:00.645Z,66.20
2018-08-23T06:13:00.520Z,63.70
2018-08-23T06:14:00.497Z,65.20
2018-08-23T06:15:00.449Z,64.90
2018-08-23T06:16:00.475Z,64.90
2018-08-23T06:17:00.469Z,63.70
2018-08-23T06:18:00.504Z,63.00
2018-08-23T06:19:00.494Z,62.50
2018-08-23T06:20:00.716Z,62.40
2018-08-23T06:21:00.483Z,61.70
2018-08-23T06:22:01.421Z,61.50
2018-08-23T06:23:00.485Z,61.50
2018-08-23T06:24:00.904Z,62.20
2018-08-23T06:25:00.503Z,59.10
2018-08-23T06:26:00.499Z,54.00
2018-08-23T06:27:00.493Z,56.90
2018-08-23T06:28:00.523Z,59.70
2018-08-23T06:29:00.549Z,60.20
2018-08-23T06:30:00.533Z,59.00
2018-08-23T06:31:00.512Z,62.20
2018-08-23T06:32:00.542Z,60.00
2018-08-23T06:33:01.491Z,62.20
2018-08-23T06:34:00.593Z,65.80
2018-08-23T06:35:00.550Z,64.30
2018-08-23T06:36:00.551Z,65.70
2018-08-23T06:37:00.564Z,66.50
2018-08-23T06:38:00.551Z,68.30
2018-08-23T06:39:00.571Z,64.80
2018-08-23T06:40:00.632Z,67.30
2018-08-23T06:41:00.589Z,68.20
2018-08-23T06:42:00.612Z,69.70
2018-08-23T06:43:00.594Z,68.70
2018-08-23T06:44:00.585Z,68.60
2018-08-23T06:45:00.617Z,69.90
2018-08-23T06:46:00.611Z,68.10
2018-08-23T06:47:00.621Z,67.60
2018-08-23T06:48:00.605Z,66.20
2018-08-23T06:49:00.724Z,66.90
2018-08-23T06:50:00.691Z,64.50
2018-08-23T06:51:00.732Z,63.30
2018-08-23T06:52:00.677Z,65.60
2018-08-23T06:53:00.768Z,63.90
2018-08-23T06:54:00.703Z,65.40
2018-08-23T06:55:00.662Z,64.50
2018-08-23T06:56:00.674Z,63.90
2018-08-23T06:57:00.685Z,64.40
2018-08-23T06:58:00.688Z,62.70
2018-08-23T06:59:00.730Z,63.70
2018-08-23T07:00:00.674Z,61.30
2018-08-23T07:01:00.701Z,60.50
2018-08-23T07:02:00.695Z,60.90
2018-08-23T07:03:01.448Z,66.10
2018-08-23T07:04:00.724Z,62.50
2018-08-23T07:05:00.738Z,60.80
2018-08-23T07:06:00.764Z,61.20
2018-08-23T07:07:00.717Z,61.90
2018-08-23T07:08:00.824Z,61.00
2018-08-23T07:09:00.741Z,57.60
2018-08-23T07:10:00.746Z,60.10
2018-08-23T07:11:00.760Z,56.70
2018-08-23T07:12:00.759Z,57.90
2018-08-23T07:13:00.790Z,56.90
2018-08-23T07:14:00.766Z,56.40
2018-08-23T07:15:00.773Z,54.20
2018-08-23T07:16:00.865Z,56.80
2018-08-23T07:17:00.829Z,56.40
2018-08-23T07:18:00.830Z,54.70
2018-08-23T07:19:00.827Z,55.40
2018-08-23T07:20:00.837Z,53.50
2018-08-23T07:21:00.908Z,54.20
2018-08-23T07:22:00.893Z,54.90
2018-08-23T07:23:00.915Z,54.60
2018-08-23T07:24:00.873Z,53.70
2018-08-23T07:25:00.920Z,53.30
2018-08-23T07:26:00.891Z,53.20
2018-08-23T07:27:00.899Z,54.00
2018-08-23T07:28:01.318Z,52.30
2018-08-23T07:29:00.998Z,52.70
2018-08-23T07:30:01.059Z,54.70
2018-08-23T07:31:01.081Z,53.70
2018-08-23T07:32:00.969Z,53.70
2018-08-23T07:33:00.995Z,51.50
2018-08-23T07:34:00.972Z,56.60
2018-08-23T07:35:00.991Z,55.40
2018-08-23T07:36:01.019Z,53.30
2018-08-23T07:37:01.329Z,54.00
2018-08-23T07:38:01.061Z,53.90
2018-08-23T07:39:01.038Z,54.50
2018-08-23T07:40:01.122Z,52.20
2018-08-23T07:41:01.087Z,52.40
2018-08-23T07:42:01.069Z,51.80
2018-08-23T07:43:01.357Z,53.00
2018-08-23T07:44:01.149Z,54.60
2018-08-23T07:45:01.147Z,55.00
2018-08-23T07:46:01.081Z,51.90
2018-08-23T07:47:01.243Z,51.60
2018-08-23T07:48:01.089Z,53.20
2018-08-23T07:49:01.104Z,50.70
2018-08-23T07:50:01.110Z,48.90
2018-08-23T07:51:01.990Z,46.40
2018-08-23T07:52:01.145Z,45.40
2018-08-23T07:53:01.194Z,45.40
2018-08-23T07:54:01.208Z,42.50
2018-08-23T07:55:01.188Z,45.20
2018-08-23T07:56:01.207Z,41.80
2018-08-23T07:57:01.227Z,42.60
2018-08-23T07:58:01.348Z,43.40
2018-08-23T07:59:01.326Z,45.20
2018-08-23T08:00:01.267Z,42.60
2018-08-23T08:01:01.258Z,40.40
2018-08-23T08:02:01.345Z,41.50
2018-08-23T08:03:01.293Z,40.20
2018-08-23T08:04:02.007Z,39.40
2018-08-23T08:05:01.382Z,38.30
2018-08-23T08:06:01.385Z,36.00
2018-08-23T08:07:01.362Z,36.00
2018-08-23T08:08:02.000Z,36.00
2018-08-23T08:09:02.520Z,36.90
2018-08-23T08:10:01.451Z,36.60
2018-08-23T08:11:03.502Z,37.50
2018-08-23T08:12:02.034Z,38.00
2018-08-23T08:13:03.505Z,39.90
2018-08-23T08:14:05.000Z,38.00
2018-08-23T08:15:02.527Z,39.00
2018-08-23T08:16:02.074Z,37.60
2018-08-23T08:17:01.538Z,38.70
2018-08-23T08:18:01.500Z,37.40
2018-08-23T08:19:03.504Z,38.10
2018-08-23T08:20:01.526Z,39.80
2018-08-23T08:21:02.184Z,37.90
2018-08-23T08:22:02.011Z,38.30
2018-08-23T08:23:02.507Z,37.30
2018-08-23T08:24:02.551Z,38.70
2018-08-23T08:25:02.510Z,36.10
2018-08-23T08:26:02.081Z,35.90
2018-08-23T08:27:02.524Z,36.30
2018-08-23T08:28:02.615Z,36.80
2018-08-23T08:29:02.749Z,35.90
2018-08-23T08:30:02.578Z,36.10
2018-08-23T08:31:03.713Z,36.20
2018-08-23T08:32:02.621Z,34.70
2018-08-23T08:33:03.543Z,35.20
2018-08-23T08:34:02.619Z,36.20
2018-08-23T08:35:03.516Z,36.60
2018-08-23T08:36:02.681Z,34.20
2018-08-23T08:37:02.529Z,35.10
2018-08-23T08:38:03.538Z,34.60
2018-08-23T08:39:02.558Z,34.00
2018-08-23T08:40:02.661Z,32.40
2018-08-23T08:41:02.592Z,32.10
2018-08-23T08:42:04.116Z,29.60
2018-08-23T08:43:03.527Z,28.10
2018-08-23T08:44:02.787Z,28.90
2018-08-23T08:45:02.722Z,28.70
2018-08-23T08:46:02.754Z,28.00
2018-08-23T08:47:03.112Z,28.60
2018-08-23T08:48:05.522Z,26.60
2018-08-23T08:49:02.775Z,26.10
2018-08-23T08:50:01.944Z,24.70
2018-08-23T08:51:02.526Z,24.90
2018-08-23T08:52:02.078Z,27.10
2018-08-23T08:53:02.029Z,25.70
2018-08-23T08:54:02.010Z,26.50
2018-08-23T08:55:02.011Z,26.00
2018-08-23T08:56:02.035Z,25.20
2018-08-23T08:57:02.078Z,22.90
2018-08-23T08:58:02.101Z,24.10
2018-08-23T08:59:02.078Z,22.80
2018-08-23T09:00:02.078Z,21.30
2018-08-23T09:01:02.107Z,22.70
2018-08-23T09:02:02.113Z,21.30
2018-08-23T09:03:02.190Z,22.90
2018-08-23T09:04:03.243Z,24.70
2018-08-23T09:05:02.287Z,23.50
2018-08-23T09:06:02.196Z,22.30
2018-08-23T09:07:02.188Z,22.30
2018-08-23T09:08:02.249Z,22.20
2018-08-23T09:09:02.280Z,20.70
2018-08-23T09:10:02.246Z,24.00
2018-08-23T09:11:02.267Z,21.90
2018-08-23T09:12:02.593Z,20.30
2018-08-23T09:13:02.304Z,23.50
2018-08-23T09:14:02.411Z,21.30
2018-08-23T09:15:02.335Z,21.40
2018-08-23T09:16:03.046Z,20.40
2018-08-23T09:17:02.368Z,20.00
2018-08-23T09:18:03.274Z,19.30
2018-08-23T09:19:02.508Z,19.70
2018-08-23T09:20:02.454Z,18.60
2018-08-23T09:21:02.422Z,17.50
2018-08-23T09:22:02.470Z,16.40
2018-08-23T09:23:02.763Z,16.20
2018-08-23T09:24:03.583Z,18.80
2018-08-23T09:25:02.502Z,16.20
2018-08-23T09:26:03.107Z,16.60
2018-08-23T09:27:02.550Z,18.50
2018-08-23T09:28:02.548Z,19.40
2018-08-23T09:29:02.587Z,19.00
2018-08-23T09:30:02.611Z,20.00
2018-08-23T09:31:02.621Z,18.40
2018-08-23T09:32:02.720Z,17.50
2018-08-23T09:33:02.686Z,19.80
2018-08-23T09:34:02.744Z,23.10
2018-08-23T09:35:02.778Z,34.90
2018-08-23T09:36:02.759Z,22.40
2018-08-23T09:37:02.873Z,23.00
2018-08-23T09:38:02.778Z,19.10
2018-08-23T09:39:02.772Z,18.70
2018-08-23T09:40:03.207Z,17.90
2018-08-23T09:41:02.813Z,16.30
2018-08-23T09:42:02.812Z,18.20
2018-08-23T09:43:02.961Z,17.70
2018-08-23T09:44:02.979Z,15.20
2018-08-23T09:45:02.866Z,16.80
2018-08-23T09:46:02.868Z,15.20
2018-08-23T09:47:02.917Z,14.90
2018-08-23T09:48:03.178Z,14.10
2018-08-23T09:49:02.957Z,13.80
2018-08-23T09:50:03.041Z,15.40
2018-08-23T09:51:03.055Z,15.80
2018-08-23T09:52:02.995Z,17.60
2018-08-23T09:53:03.018Z,17.90
2018-08-23T09:54:03.129Z,17.10
2018-08-23T09:55:03.062Z,13.70
2018-08-23T09:56:03.184Z,12.80
2018-08-23T09:57:05.696Z,14.40
2018-08-23T09:58:03.119Z,13.40
2018-08-23T09:59:03.329Z,13.40
2018-08-23T10:00:03.223Z,13.30
2018-08-23T10:01:03.197Z,14.40
2018-08-23T10:02:03.165Z,13.90
2018-08-23T10:03:03.260Z,13.70
2018-08-23T10:04:03.227Z,12.60
2018-08-23T10:05:04.171Z,13.20
2018-08-23T10:06:03.259Z,13.80
2018-08-23T10:07:03.286Z,12.90
2018-08-23T10:08:03.300Z,12.90
2018-08-23T10:09:03.357Z,13.50
2018-08-23T10:10:03.335Z,14.50
2018-08-23T10:11:04.158Z,15.40
2018-08-23T10:12:03.569Z,14.30
2018-08-23T10:13:03.424Z,13.80
2018-08-23T10:14:03.418Z,12.60
2018-08-23T10:15:03.542Z,12.40
2018-08-23T10:16:03.471Z,13.60
2018-08-23T10:17:03.500Z,14.80
2018-08-23T10:18:03.493Z,14.90
2018-08-23T10:19:03.515Z,12.70
2018-08-23T10:20:03.516Z,14.30
2018-08-23T10:21:03.542Z,14.30
2018-08-23T10:22:03.567Z,22.50
2018-08-23T10:23:03.593Z,19.70
2018-08-23T10:24:03.721Z,16.00
2018-08-23T10:25:03.648Z,17.80
2018-08-23T10:26:03.645Z,17.20
2018-08-23T10:27:03.810Z,15.60
2018-08-23T10:28:03.727Z,17.50
2018-08-23T10:29:03.762Z,16.50
2018-08-23T10:30:03.707Z,17.30
2018-08-23T10:31:03.974Z,15.70
2018-08-23T10:32:03.732Z,15.70
2018-08-23T10:33:03.829Z,14.60
2018-08-23T10:34:04.674Z,15.00
2018-08-23T10:35:03.822Z,15.00
2018-08-23T10:36:03.893Z,16.90
2018-08-23T10:37:04.029Z,16.00
2018-08-23T10:38:03.920Z,16.70
2018-08-23T10:39:03.889Z,15.00
2018-08-23T10:40:03.905Z,14.90
2018-08-23T10:41:03.886Z,15.20
2018-08-23T10:42:03.930Z,13.70
2018-08-23T10:43:05.205Z,15.00
2018-08-23T10:44:04.290Z,17.80
2018-08-23T10:45:03.975Z,15.40
2018-08-23T10:46:04.019Z,15.50
2018-08-23T10:47:04.002Z,15.80
2018-08-23T10:48:04.694Z,14.40
2018-08-23T10:49:04.050Z,15.90
2018-08-23T10:50:04.046Z,15.80
2018-08-23T10:51:04.086Z,15.40
2018-08-23T10:52:04.231Z,16.80
2018-08-23T10:53:04.146Z,16.70
2018-08-23T10:54:04.685Z,14.80
2018-08-23T10:55:04.155Z,15.20
2018-08-23T10:56:04.136Z,14.60
2018-08-23T10:57:04.174Z,15.70
2018-08-23T10:58:04.214Z,15.10
2018-08-23T10:59:04.221Z,15.30
2018-08-23T11:00:04.213Z,15.60
2018-08-23T11:01:04.226Z,14.70
2018-08-23T11:02:04.219Z,14.90
2018-08-23T11:03:04.217Z,16.70
2018-08-23T11:04:05.200Z,16.70
2018-08-23T11:05:04.255Z,16.60
2018-08-23T11:06:04.301Z,16.50
2018-08-23T11:07:04.283Z,15.20
2018-08-23T11:08:04.375Z,14.30
2018-08-23T11:09:04.385Z,15.40
2018-08-23T11:10:04.329Z,17.10
2018-08-23T11:11:04.820Z,17.60
2018-08-23T11:12:05.201Z,15.80
2018-08-23T11:13:04.373Z,15.50
2018-08-23T11:14:04.370Z,15.30
2018-08-23T11:15:04.433Z,16.50
2018-08-23T11:16:04.543Z,16.10
2018-08-23T11:17:04.596Z,16.30
2018-08-23T11:18:04.457Z,15.60
2018-08-23T11:19:04.459Z,15.80
2018-08-23T11:20:04.466Z,17.00
2018-08-23T11:21:04.566Z,18.80
2018-08-23T11:22:04.765Z,18.20
2018-08-23T11:23:04.592Z,18.50
2018-08-23T11:24:04.596Z,20.80
2018-08-23T11:25:04.512Z,18.60
2018-08-23T11:26:04.569Z,18.60
2018-08-23T11:27:04.623Z,23.40
2018-08-23T11:28:04.704Z,18.10
2018-08-23T11:29:04.711Z,19.50
2018-08-23T11:30:04.683Z,15.80
2018-08-23T11:31:04.630Z,18.90
2018-08-23T11:32:04.661Z,19.40
2018-08-23T11:33:04.767Z,20.50
2018-08-23T11:34:04.888Z,21.20
2018-08-23T11:35:04.758Z,19.20
2018-08-23T11:36:04.686Z,19.90
2018-08-23T11:37:04.744Z,18.90
2018-08-23T11:38:04.698Z,18.10
2018-08-23T11:39:04.814Z,19.70
2018-08-23T11:40:04.762Z,18.00
2018-08-23T11:41:04.843Z,25.00
2018-08-23T11:42:04.914Z,19.50
2018-08-23T11:43:05.718Z,19.80
2018-08-23T11:44:05.397Z,18.80
2018-08-23T11:45:05.385Z,19.40
2018-08-23T11:46:04.850Z,19.90
2018-08-23T11:47:04.832Z,20.70
2018-08-23T11:48:05.539Z,19.40
2018-08-23T11:49:04.886Z,19.30
2018-08-23T11:50:05.348Z,20.70
2018-08-23T11:51:04.849Z,19.60
2018-08-23T11:52:04.972Z,17.40
2018-08-23T11:53:05.450Z,16.90
2018-08-23T11:54:05.121Z,15.40
2018-08-23T11:55:04.981Z,15.10
2018-08-23T11:56:05.028Z,13.80
2018-08-23T11:57:05.081Z,14.60
2018-08-23T11:58:05.047Z,13.70
2018-08-23T11:59:04.965Z,14.80
2018-08-23T12:00:05.728Z,15.10
2018-08-23T12:01:07.895Z,15.10
2018-08-23T12:02:04.975Z,14.70
2018-08-23T12:03:05.280Z,13.20
2018-08-23T12:04:05.862Z,15.10
2018-08-23T12:05:04.994Z,15.30
2018-08-23T12:06:05.164Z,15.10
2018-08-23T12:07:06.457Z,14.00
2018-08-23T12:08:05.236Z,14.30
2018-08-23T12:09:05.328Z,15.20
2018-08-23T12:10:05.092Z,17.00
2018-08-23T12:11:05.033Z,17.50
2018-08-23T12:12:05.982Z,16.00
2018-08-23T12:13:05.138Z,16.60
2018-08-23T12:14:05.057Z,16.20
2018-08-23T12:15:05.058Z,16.70
2018-08-23T12:16:05.098Z,14.50
2018-08-23T12:17:05.087Z,15.00
2018-08-23T12:18:05.065Z,15.70
2018-08-23T12:19:05.704Z,18.30
2018-08-23T12:20:05.265Z,16.60
2018-08-23T12:21:05.160Z,16.60
2018-08-23T12:22:05.739Z,14.80
2018-08-23T12:23:05.237Z,15.10
2018-08-23T12:24:05.207Z,15.10
2018-08-23T12:25:05.197Z,13.30
2018-08-23T12:26:05.327Z,15.40
2018-08-23T12:27:05.146Z,14.20
2018-08-23T12:28:05.165Z,13.50
2018-08-23T12:29:05.553Z,12.80
2018-08-23T12:30:05.172Z,15.10
2018-08-23T12:31:05.331Z,28.60
2018-08-23T12:32:05.285Z,22.80
2018-08-23T12:33:05.267Z,16.10
2018-08-23T12:34:05.266Z,31.40
2018-08-23T12:35:05.281Z,34.90
2018-08-23T12:36:05.244Z,19.10
2018-08-23T12:37:05.271Z,12.80
2018-08-23T12:38:05.326Z,12.60
2018-08-23T12:39:05.308Z,14.50
2018-08-23T12:40:05.342Z,15.40
2018-08-23T12:41:05.417Z,15.60
2018-08-23T12:42:05.314Z,14.50
2018-08-23T12:43:06.253Z,18.20
2018-08-23T12:44:05.384Z,20.30
2018-08-23T12:45:05.369Z,18.80
2018-08-23T12:46:05.468Z,21.50
2018-08-23T12:47:05.449Z,18.20
2018-08-23T12:48:06.261Z,18.90
2018-08-23T12:49:05.487Z,16.40
2018-08-23T12:50:05.407Z,16.80